createdAt,value
2023-04-18T00:01:48.938Z,36.52
2023-04-18T00:04:15.946Z,36.54
2023-04-18T00:06:42.967Z,36.46
2023-04-18T00:09:09.521Z,36.65
2023-04-18T00:11:35.950Z,36.63
2023-04-18T00:14:02.449Z,36.46
2023-04-18T00:16:29.096Z,36.45
2023-04-18T00:18:57.033Z,36.38
2023-04-18T00:21:23.670Z,36.61
2023-04-18T00:23:50.267Z,36.22
2023-04-18T00:26:16.968Z,36.79
2023-04-18T00:28:43.499Z,36.67
2023-04-18T00:31:10.158Z,36.47
2023-04-18T00:33:36.754Z,36.66
2023-04-18T00:36:03.410Z,36.71
2023-04-18T00:38:29.910Z,36.47
2023-04-18T00:40:56.364Z,36.51
2023-04-18T00:43:22.847Z,36.39
2023-04-18T00:45:49.460Z,36.20
2023-04-18T00:48:16.015Z,36.45
2023-04-18T00:50:42.503Z,36.14
2023-04-18T00:53:09.006Z,36.36
2023-04-18T00:55:35.537Z,36.17
2023-04-18T00:58:02.087Z,36.35
2023-04-18T01:00:28.740Z,36.22
2023-04-18T01:02:55.825Z,36.07
2023-04-18T01:05:22.568Z,36.13
2023-04-18T01:07:49.139Z,36.06
2023-04-18T01:10:15.857Z,36.35
2023-04-18T01:12:42.428Z,35.93
2023-04-18T01:15:08.911Z,36.05
2023-04-18T01:17:35.474Z,36.27
2023-04-18T01:20:02.027Z,36.16
2023-04-18T01:22:28.654Z,36.22
2023-04-18T01:24:55.198Z,36.01
2023-04-18T01:27:21.743Z,35.77
2023-04-18T01:29:48.308Z,36.25
2023-04-18T01:32:14.825Z,36.12
2023-04-18T01:34:41.574Z,36.32
2023-04-18T01:37:08.024Z,36.42
2023-04-18T01:39:34.580Z,36.25
2023-04-18T01:42:01.079Z,36.35
2023-04-18T01:44:27.617Z,36.16
2023-04-18T01:46:54.173Z,35.95
2023-04-18T01:49:20.824Z,36.00
2023-04-18T01:51:47.324Z,36.22
2023-04-18T01:54:13.992Z,35.93
2023-04-18T01:56:40.681Z,36.04
2023-04-18T01:59:07.128Z,35.78
2023-04-18T02:01:33.659Z,35.86
2023-04-18T02:04:00.310Z,35.88
2023-04-18T02:06:26.820Z,36.07
2023-04-18T02:08:53.347Z,36.02
2023-04-18T02:11:19.954Z,35.85
2023-04-18T02:13:46.532Z,35.93
2023-04-18T02:16:13.214Z,36.00
2023-04-18T02:18:39.691Z,35.92
2023-04-18T02:21:06.292Z,36.13
2023-04-18T02:23:32.897Z,36.00
2023-04-18T02:25:59.477Z,36.03
2023-04-18T02:28:26.016Z,36.02
2023-04-18T02:30:52.476Z,36.20
2023-04-18T02:33:19.131Z,36.02
2023-04-18T02:35:45.757Z,36.11
2023-04-18T02:38:12.233Z,36.10
2023-04-18T02:40:38.656Z,35.97
2023-04-18T02:43:05.102Z,36.17
2023-04-18T02:45:31.730Z,35.84
2023-04-18T02:47:58.353Z,35.98
2023-04-18T02:50:24.918Z,36.08
2023-04-18T02:52:51.617Z,35.92
2023-04-18T02:55:18.217Z,36.04
2023-04-18T02:57:44.761Z,36.15
2023-04-18T03:00:11.324Z,35.90
2023-04-18T03:02:37.873Z,35.97
2023-04-18T03:05:04.557Z,35.93
2023-04-18T03:07:31.308Z,35.82
2023-04-18T03:09:57.837Z,35.85
2023-04-18T03:12:24.443Z,35.97
2023-04-18T03:14:51.050Z,35.94
2023-04-18T03:17:17.709Z,35.92
2023-04-18T03:19:44.205Z,35.82
2023-04-18T03:22:10.622Z,35.74
2023-04-18T03:24:37.138Z,35.82
2023-04-18T03:27:03.672Z,35.83
2023-04-18T03:29:30.144Z,35.91
2023-04-18T03:31:56.695Z,35.95
2023-04-18T03:34:23.213Z,36.06
2023-04-18T03:36:49.775Z,35.82
2023-04-18T03:39:16.401Z,35.95
2023-04-18T03:41:42.873Z,36.19
2023-04-18T03:44:09.297Z,35.65
2023-04-18T03:46:35.985Z,35.96
2023-04-18T03:49:02.590Z,35.93
2023-04-18T03:51:29.121Z,35.90
2023-04-18T03:53:55.663Z,35.93
2023-04-18T03:56:24.413Z,35.77
2023-04-18T03:58:50.926Z,35.93
2023-04-18T04:01:17.566Z,35.97
2023-04-18T04:03:44.275Z,36.07
2023-04-18T04:06:10.867Z,35.97
2023-04-18T04:08:37.569Z,35.99
2023-04-18T04:11:06.960Z,35.90
2023-04-18T04:13:33.516Z,36.20
2023-04-18T04:16:00.148Z,36.31
2023-04-18T04:18:26.751Z,36.28
2023-04-18T04:20:53.425Z,35.98
2023-04-18T04:23:19.896Z,35.82
2023-04-18T04:25:46.342Z,35.79
2023-04-18T04:28:12.884Z,36.04
2023-04-18T04:30:39.412Z,36.27
2023-04-18T04:33:05.995Z,35.81
2023-04-18T04:35:32.497Z,36.04
2023-04-18T04:37:58.953Z,36.07
2023-04-18T04:42:51.324Z,35.98
2023-04-18T04:45:17.961Z,35.99
2023-04-18T04:47:44.664Z,35.85
2023-04-18T04:50:11.267Z,35.87
2023-04-18T04:52:37.850Z,36.05
2023-04-18T04:55:04.479Z,35.96
2023-04-18T04:57:31.026Z,36.09
2023-04-18T04:59:57.492Z,36.12
2023-04-18T05:02:24.214Z,36.22
2023-04-18T05:04:50.915Z,35.85
2023-04-18T05:07:17.364Z,36.08
2023-04-18T05:09:43.801Z,36.18
2023-04-18T05:12:10.332Z,36.16
2023-04-18T05:14:36.915Z,36.02
2023-04-18T05:17:03.591Z,36.11
2023-04-18T05:19:30.156Z,35.94
2023-04-18T05:21:56.633Z,35.98
2023-04-18T05:24:23.088Z,35.83
2023-04-18T05:26:49.794Z,35.99
2023-04-18T05:29:16.264Z,35.71
2023-04-18T05:31:42.712Z,36.17
2023-04-18T05:34:09.324Z,36.07
2023-04-18T05:36:38.817Z,36.12
2023-04-18T05:39:05.290Z,36.11
2023-04-18T05:41:31.758Z,35.90
2023-04-18T05:44:05.491Z,35.65
2023-04-18T05:46:32.501Z,35.52
2023-04-18T05:48:59.115Z,35.95
2023-04-18T05:51:25.605Z,36.23
2023-04-18T05:53:52.090Z,38.21
2023-04-18T05:56:18.633Z,38.11
2023-04-18T05:58:45.197Z,38.01
2023-04-18T06:01:14.825Z,38.11
2023-04-18T06:03:41.529Z,38.27
2023-04-18T06:06:08.292Z,38.49
2023-04-18T06:08:34.874Z,39.17
2023-04-18T06:11:01.417Z,40.18
2023-04-18T06:13:27.885Z,40.19
2023-04-18T06:15:54.334Z,40.63
2023-04-18T06:18:20.856Z,41.79
2023-04-18T06:20:47.317Z,41.49
2023-04-18T06:23:13.811Z,41.49
2023-04-18T06:25:40.450Z,41.58
2023-04-18T06:28:06.941Z,42.11
2023-04-18T06:30:33.484Z,43.21
2023-04-18T06:33:00.007Z,42.59
2023-04-18T06:35:26.808Z,42.75
2023-04-18T06:37:53.418Z,42.90
2023-04-18T06:40:19.817Z,42.50
2023-04-18T06:42:46.274Z,42.46
2023-04-18T06:45:12.803Z,42.23
2023-04-18T06:47:39.343Z,41.92
2023-04-18T06:50:05.875Z,42.15
2023-04-18T06:52:32.456Z,41.92
2023-04-18T06:54:58.914Z,41.79
2023-04-18T06:57:25.466Z,41.46
2023-04-18T06:59:52.161Z,41.25
2023-04-18T07:02:18.741Z,40.61
2023-04-18T07:04:45.328Z,40.21
2023-04-18T07:07:11.773Z,40.10
2023-04-18T07:09:38.188Z,40.37
2023-04-18T07:12:04.665Z,40.30
2023-04-18T07:14:32.887Z,40.22
2023-04-18T07:17:03.507Z,39.46
2023-04-18T07:19:30.027Z,39.42
2023-04-18T07:21:56.534Z,39.22
2023-04-18T07:24:22.947Z,39.12
2023-04-18T07:26:49.445Z,38.70
2023-04-18T07:29:15.906Z,38.89
2023-04-18T07:31:42.422Z,38.59
2023-04-18T07:34:08.901Z,38.22
2023-04-18T07:36:35.398Z,38.12
2023-04-18T07:39:01.870Z,38.20
2023-04-18T07:41:28.382Z,38.03
2023-04-18T07:43:54.916Z,38.07
2023-04-18T07:46:21.518Z,37.73
2023-04-18T07:48:48.089Z,37.85
2023-04-18T07:51:17.521Z,37.96
2023-04-18T07:56:10.673Z,37.82
2023-04-18T07:58:37.095Z,37.43
2023-04-18T08:01:03.865Z,37.25
2023-04-18T08:03:30.543Z,37.24
2023-04-18T08:05:57.242Z,37.13
2023-04-18T08:08:23.748Z,36.94
2023-04-18T08:10:50.173Z,37.12
2023-04-18T08:13:16.613Z,36.79
2023-04-18T08:15:43.312Z,36.89
2023-04-18T08:18:12.846Z,36.53
2023-04-18T08:20:39.366Z,36.52
2023-04-18T08:23:09.567Z,36.65
2023-04-18T08:25:37.873Z,36.84
2023-04-18T08:28:04.422Z,36.45
2023-04-18T08:30:30.992Z,36.57
2023-04-18T08:32:57.458Z,36.27
2023-04-18T08:35:23.921Z,36.46
2023-04-18T08:37:50.379Z,36.21
2023-04-18T08:40:16.885Z,36.23
2023-04-18T08:42:43.309Z,36.30
2023-04-18T08:45:12.886Z,35.96
2023-04-18T08:47:39.428Z,36.62
2023-04-18T08:50:05.845Z,36.40
2023-04-18T08:52:32.323Z,36.48
2023-04-18T08:54:58.782Z,36.90
2023-04-18T08:57:25.171Z,36.76
2023-04-18T08:59:51.690Z,36.97
2023-04-18T09:02:18.209Z,36.79
2023-04-18T09:04:44.717Z,36.81
2023-04-18T09:07:11.252Z,36.41
2023-04-18T09:09:37.760Z,36.34
2023-04-18T09:12:04.248Z,36.69
2023-04-18T09:14:30.790Z,36.47
2023-04-18T09:16:57.427Z,36.37
2023-04-18T09:19:23.996Z,36.43
2023-04-18T09:21:50.579Z,36.00
2023-04-18T09:24:17.150Z,36.59
2023-04-18T09:26:43.708Z,36.07
2023-04-18T09:29:10.320Z,35.88
2023-04-18T09:31:36.869Z,36.13
2023-04-18T09:34:03.470Z,36.35
2023-04-18T09:36:30.014Z,36.49
2023-04-18T09:38:57.227Z,36.22
2023-04-18T09:41:24.033Z,36.28
2023-04-18T09:43:50.645Z,36.24
2023-04-18T09:46:17.204Z,36.23
2023-04-18T09:48:43.740Z,36.36
2023-04-18T09:51:10.328Z,36.30
2023-04-18T09:53:36.888Z,36.54
2023-04-18T09:56:03.460Z,36.58
2023-04-18T09:58:30.111Z,36.28
2023-04-18T10:00:56.678Z,36.31
2023-04-18T10:03:23.253Z,36.25
2023-04-18T10:05:49.823Z,36.42
2023-04-18T10:08:16.401Z,36.69
2023-04-18T10:10:42.823Z,36.44
2023-04-18T10:13:09.374Z,36.61
2023-04-18T10:15:36.010Z,36.54
2023-04-18T10:18:05.113Z,36.49
2023-04-18T10:20:32.410Z,36.65
2023-04-18T10:22:58.971Z,36.15
2023-04-18T10:25:25.503Z,36.36
2023-04-18T10:27:52.116Z,36.45
2023-04-18T10:30:18.732Z,36.27
2023-04-18T10:32:45.290Z,36.61
2023-04-18T10:35:11.950Z,36.62
2023-04-18T10:37:38.475Z,36.36
2023-04-18T10:40:04.915Z,36.63
2023-04-18T10:42:31.506Z,36.43
2023-04-18T10:45:01.199Z,36.27
2023-04-18T10:47:27.750Z,36.54
2023-04-18T10:49:54.361Z,36.60
2023-04-18T10:52:20.877Z,36.79
2023-04-18T10:54:47.423Z,36.86
2023-04-18T10:57:14.005Z,37.06
2023-04-18T10:59:40.545Z,36.99
2023-04-18T11:02:07.074Z,36.92
2023-04-18T11:04:33.629Z,37.17
2023-04-18T11:07:00.143Z,37.35
2023-04-18T11:09:29.701Z,37.35
2023-04-18T11:11:56.195Z,37.75
2023-04-18T11:14:22.669Z,37.56
2023-04-18T11:16:49.286Z,37.67
2023-04-18T11:19:15.891Z,37.67
2023-04-18T11:21:42.372Z,37.53
2023-04-18T11:24:08.864Z,37.70
2023-04-18T11:26:35.736Z,37.26
2023-04-18T11:29:02.768Z,37.34
2023-04-18T11:31:29.323Z,37.17
2023-04-18T11:33:55.799Z,37.25
2023-04-18T11:36:22.297Z,37.54
2023-04-18T11:38:48.815Z,37.48
2023-04-18T11:41:15.306Z,37.35
2023-04-18T11:43:41.747Z,36.95
2023-04-18T11:46:08.199Z,37.03
2023-04-18T11:48:34.774Z,37.24
2023-04-18T11:51:01.272Z,37.11
2023-04-18T11:53:27.818Z,36.88
2023-04-18T11:55:54.377Z,37.01
2023-04-18T11:58:24.017Z,37.07
2023-04-18T12:00:50.521Z,37.17
2023-04-18T12:03:17.177Z,37.24
2023-04-18T12:05:43.876Z,37.32
2023-04-18T12:08:10.427Z,37.23
2023-04-18T12:10:36.987Z,37.23
2023-04-18T12:13:03.493Z,37.24
2023-04-18T12:15:29.958Z,37.29
2023-04-18T12:17:56.482Z,36.96
2023-04-18T12:20:22.966Z,37.22
2023-04-18T12:22:49.529Z,37.11
2023-04-18T12:25:16.094Z,37.00
2023-04-18T12:27:42.586Z,37.27
2023-04-18T12:30:09.033Z,37.04
2023-04-18T12:32:35.600Z,37.28
2023-04-18T12:35:02.111Z,37.29
2023-04-18T12:37:28.560Z,36.89
2023-04-18T12:39:55.008Z,37.28
2023-04-18T12:42:21.458Z,37.25
2023-04-18T12:44:48.087Z,37.08
2023-04-18T12:47:14.631Z,36.89
2023-04-18T12:49:41.132Z,36.91
2023-04-18T12:52:07.609Z,36.92
2023-04-18T12:54:34.625Z,36.63
2023-04-18T12:57:01.756Z,36.36
2023-04-18T12:59:28.329Z,36.16
2023-04-18T13:01:57.923Z,36.19
2023-04-18T13:04:24.585Z,35.87
2023-04-18T13:06:53.943Z,36.28
2023-04-18T13:09:20.541Z,36.07
2023-04-18T13:11:49.046Z,36.25
2023-04-18T13:14:16.127Z,36.49
2023-04-18T13:16:44.079Z,36.53
2023-04-18T13:19:10.745Z,36.32
2023-04-18T13:21:37.245Z,35.78
2023-04-18T13:24:03.808Z,36.09
2023-04-18T13:26:30.313Z,35.81
2023-04-18T13:28:56.836Z,35.78
2023-04-18T13:31:23.409Z,35.85
2023-04-18T13:33:49.942Z,35.87
2023-04-18T13:36:16.425Z,35.37
2023-04-18T13:38:43.360Z,35.24
2023-04-18T13:41:12.696Z,34.85
2023-04-18T13:43:39.956Z,34.67
2023-04-18T13:46:06.458Z,35.00
2023-04-18T13:48:32.972Z,35.37
2023-04-18T13:50:59.504Z,35.81
2023-04-18T13:53:26.062Z,35.71
2023-04-18T13:55:52.507Z,35.66
2023-04-18T13:58:18.989Z,36.19
2023-04-18T14:00:45.495Z,35.91
2023-04-18T14:03:12.143Z,35.68
2023-04-18T14:05:38.769Z,35.49
2023-04-18T14:08:05.202Z,35.34
2023-04-18T14:10:31.772Z,35.35
2023-04-18T14:12:58.319Z,35.21
2023-04-18T14:15:24.849Z,35.21
2023-04-18T14:17:51.411Z,35.13
2023-04-18T14:20:18.107Z,35.03
2023-04-18T14:22:44.636Z,35.02
2023-04-18T14:25:11.258Z,34.82
2023-04-18T14:27:37.798Z,34.74
2023-04-18T14:30:04.306Z,34.54
2023-04-18T14:32:30.793Z,34.42
2023-04-18T14:34:57.292Z,34.05
2023-04-18T14:37:23.720Z,34.72
2023-04-18T14:39:50.272Z,34.40
2023-04-18T14:42:16.714Z,34.13
2023-04-18T14:44:43.282Z,34.62
2023-04-18T14:47:09.801Z,34.25
2023-04-18T14:49:36.317Z,34.00
2023-04-18T14:52:02.950Z,33.98
2023-04-18T14:54:31.557Z,33.46
2023-04-18T14:56:59.035Z,32.56
2023-04-18T14:59:25.484Z,31.35
2023-04-18T15:01:52.226Z,30.52
2023-04-18T15:04:19.249Z,28.96
2023-04-18T15:06:46.115Z,27.46
2023-04-18T15:09:12.647Z,26.42
2023-04-18T15:11:39.346Z,25.38
2023-04-18T15:14:05.865Z,24.23
2023-04-18T15:16:32.445Z,22.76
2023-04-18T15:18:58.947Z,21.96
2023-04-18T15:21:25.464Z,21.28
2023-04-18T15:23:52.000Z,21.34
2023-04-18T15:26:18.450Z,21.04
2023-04-18T15:28:44.966Z,20.87
2023-04-18T15:31:11.529Z,20.23
2023-04-18T15:33:38.237Z,20.30
2023-04-18T15:36:04.843Z,19.73
2023-04-18T15:38:33.004Z,19.73
2023-04-18T15:40:59.873Z,19.27
2023-04-18T15:43:26.408Z,19.20
2023-04-18T15:45:54.361Z,18.99
2023-04-18T15:48:20.885Z,19.36
2023-04-18T15:50:47.407Z,19.05
2023-04-18T15:53:13.876Z,18.79
2023-04-18T15:55:40.401Z,18.96
2023-04-18T15:58:06.977Z,18.73
2023-04-18T16:00:33.471Z,18.92
2023-04-18T16:03:00.049Z,19.13
2023-04-18T16:05:26.613Z,19.20
2023-04-18T16:07:53.089Z,19.34
2023-04-18T16:10:19.600Z,19.04
2023-04-18T16:12:46.051Z,18.97
2023-04-18T16:15:12.573Z,19.02
2023-04-18T16:17:39.085Z,19.79
2023-04-18T16:20:05.565Z,19.27
2023-04-18T16:22:32.154Z,19.57
2023-04-18T16:24:58.651Z,19.82
2023-04-18T16:27:25.187Z,20.23
2023-04-18T16:29:51.683Z,20.03
2023-04-18T16:32:18.171Z,20.37
2023-04-18T16:34:44.649Z,24.31
2023-04-18T16:37:11.081Z,26.57
2023-04-18T16:39:37.661Z,27.98
2023-04-18T16:42:04.130Z,28.94
2023-04-18T16:44:30.770Z,29.10
2023-04-18T16:46:57.352Z,29.57
2023-04-18T16:49:23.981Z,29.30
2023-04-18T16:51:50.463Z,27.56
2023-04-18T16:54:16.902Z,29.41
2023-04-18T16:56:43.427Z,30.36
2023-04-18T16:59:09.884Z,29.59
2023-04-18T17:01:39.385Z,30.01
2023-04-18T17:04:05.991Z,30.84
2023-04-18T17:06:32.553Z,31.21
2023-04-18T17:08:59.009Z,30.28
2023-04-18T17:11:25.504Z,29.83
2023-04-18T17:13:54.970Z,29.92
2023-04-18T17:16:21.549Z,27.63
2023-04-18T17:18:50.830Z,28.55
2023-04-18T17:21:17.340Z,27.72
2023-04-18T17:23:43.787Z,27.85
2023-04-18T17:26:13.149Z,29.26
2023-04-18T17:28:39.690Z,30.24
2023-04-18T17:31:06.164Z,30.93
2023-04-18T17:33:32.681Z,31.90
2023-04-18T17:35:59.120Z,32.41
2023-04-18T17:38:25.629Z,32.27
2023-04-18T17:40:52.116Z,33.33
2023-04-18T17:43:18.715Z,33.54
2023-04-18T17:45:45.287Z,33.65
2023-04-18T17:48:11.749Z,33.58
2023-04-18T17:50:38.275Z,34.28
2023-04-18T17:53:04.816Z,34.12
2023-04-18T17:55:31.723Z,34.77
2023-04-18T17:57:58.186Z,34.65
2023-04-18T18:00:24.678Z,34.80
2023-04-18T18:02:51.271Z,35.27
2023-04-18T18:05:17.876Z,35.11
2023-04-18T18:07:44.302Z,35.37
2023-04-18T18:10:13.267Z,35.13
2023-04-18T18:12:39.822Z,35.51
2023-04-18T18:15:06.289Z,35.35
2023-04-18T18:17:32.932Z,35.65
2023-04-18T18:19:59.497Z,35.62
2023-04-18T18:22:26.132Z,36.03
2023-04-18T18:24:52.704Z,35.65
2023-04-18T18:27:19.256Z,35.74
2023-04-18T18:29:45.776Z,35.50
2023-04-18T18:32:12.403Z,34.55
2023-04-18T18:34:38.899Z,35.85
2023-04-18T18:37:05.351Z,36.02
2023-04-18T18:39:31.872Z,36.25
2023-04-18T18:41:58.356Z,36.64
2023-04-18T18:44:24.840Z,36.43
2023-04-18T18:46:51.436Z,36.95
2023-04-18T18:49:17.993Z,37.33
2023-04-18T18:51:47.580Z,37.37
2023-04-18T18:54:16.960Z,37.89
2023-04-18T18:56:43.576Z,37.93
2023-04-18T18:59:10.030Z,38.09
2023-04-18T19:01:36.568Z,38.80
2023-04-18T19:04:03.264Z,39.18
2023-04-18T19:06:30.040Z,38.90
2023-04-18T19:08:57.083Z,38.98
2023-04-18T19:11:23.620Z,39.52
2023-04-18T19:13:50.172Z,39.55
2023-04-18T19:16:16.591Z,39.98
2023-04-18T19:18:43.040Z,39.86
2023-04-18T19:21:09.485Z,39.93
2023-04-18T19:23:35.953Z,40.01
2023-04-18T19:26:02.423Z,39.79
2023-04-18T19:28:28.992Z,39.81
2023-04-18T19:30:55.443Z,39.96
2023-04-18T19:33:21.872Z,39.82
2023-04-18T19:35:48.469Z,39.50
2023-04-18T19:38:14.940Z,39.71
2023-04-18T19:40:41.462Z,39.69
2023-04-18T19:43:07.990Z,40.35
2023-04-18T19:45:34.536Z,40.09
2023-04-18T19:48:03.909Z,40.13
2023-04-18T19:50:31.280Z,40.10
2023-04-18T19:52:57.858Z,40.23
2023-04-18T19:55:24.289Z,40.00
2023-04-18T19:57:50.857Z,40.23
2023-04-18T20:00:17.385Z,40.00
2023-04-18T20:02:44.064Z,40.17
2023-04-18T20:05:10.839Z,40.01
2023-04-18T20:07:37.505Z,40.15
2023-04-18T20:10:04.118Z,39.98
2023-04-18T20:12:30.789Z,40.26
2023-04-18T20:14:57.253Z,40.44
2023-04-18T20:17:23.854Z,39.99
2023-04-18T20:19:50.426Z,40.38
2023-04-18T20:22:16.925Z,40.25
2023-04-18T20:24:43.505Z,40.55
2023-04-18T20:27:10.066Z,40.57
2023-04-18T20:29:36.783Z,40.24
2023-04-18T20:32:03.295Z,40.55
2023-04-18T20:34:29.838Z,40.67
2023-04-18T20:36:57.352Z,40.70
2023-04-18T20:39:23.850Z,40.50
2023-04-18T20:41:50.318Z,40.34
2023-04-18T20:44:16.808Z,40.54
2023-04-18T20:46:43.356Z,40.91
2023-04-18T20:49:09.899Z,40.56
2023-04-18T20:51:36.378Z,40.93
2023-04-18T20:54:06.003Z,40.82
2023-04-18T20:56:32.546Z,40.76
2023-04-18T20:59:01.152Z,40.97
2023-04-18T21:01:27.763Z,40.65
2023-04-18T21:03:54.586Z,40.69
2023-04-18T21:06:21.884Z,41.07
2023-04-18T21:08:48.351Z,40.71
2023-04-18T21:11:14.797Z,40.68
2023-04-18T21:13:41.282Z,40.75
2023-04-18T21:16:08.054Z,40.81
2023-04-18T21:18:34.692Z,40.83
2023-04-18T21:21:01.148Z,41.24
2023-04-18T21:23:27.729Z,41.24
2023-04-18T21:25:54.299Z,40.99
2023-04-18T21:28:20.872Z,40.93
2023-04-18T21:30:47.371Z,41.19
2023-04-18T21:33:13.851Z,41.02
2023-04-18T21:35:40.345Z,41.23
2023-04-18T21:38:06.854Z,41.04
2023-04-18T21:40:33.386Z,41.07
2023-04-18T21:42:59.870Z,41.25
2023-04-18T21:45:26.497Z,41.39
2023-04-18T21:47:53.110Z,41.13
2023-04-18T21:50:19.823Z,40.93
2023-04-18T21:52:46.318Z,41.02
2023-04-18T21:55:12.809Z,41.28
2023-04-18T21:57:42.089Z,41.12
2023-04-18T22:00:10.267Z,41.28
2023-04-18T22:02:37.205Z,40.93
2023-04-18T22:05:03.853Z,41.05
2023-04-18T22:07:30.488Z,41.27
2023-04-18T22:09:56.991Z,41.07
2023-04-18T22:12:23.490Z,41.20
2023-04-18T22:14:50.039Z,40.88
2023-04-18T22:17:16.574Z,41.00
2023-04-18T22:19:43.162Z,41.03
2023-04-18T22:24:51.068Z,41.01
2023-04-18T22:27:17.559Z,41.00
2023-04-18T22:29:44.160Z,41.07
2023-04-18T22:32:10.637Z,40.89
2023-04-18T22:34:37.237Z,41.06
2023-04-18T22:37:03.724Z,40.94
2023-04-18T22:39:30.235Z,40.93
2023-04-18T22:41:56.732Z,41.17
2023-04-18T22:44:23.284Z,40.91
2023-04-18T22:46:49.826Z,41.18
2023-04-18T22:49:16.252Z,41.30
2023-04-18T22:51:42.786Z,41.10
2023-04-18T22:54:09.295Z,40.93
2023-04-18T22:56:35.923Z,41.28
2023-04-18T22:59:02.431Z,40.96
2023-04-18T23:01:28.931Z,40.86
2023-04-18T23:03:55.622Z,41.27
2023-04-18T23:06:22.387Z,40.86
2023-04-18T23:08:48.928Z,40.99
2023-04-18T23:11:15.572Z,40.92
2023-04-18T23:13:42.231Z,40.84
2023-04-18T23:16:08.740Z,41.32
2023-04-18T23:18:35.321Z,41.25
2023-04-18T23:21:04.539Z,41.09
2023-04-18T23:23:31.155Z,40.72
2023-04-18T23:26:00.677Z,40.91
2023-04-18T23:28:27.190Z,40.97
2023-04-18T23:30:53.847Z,40.96
2023-04-18T23:33:20.269Z,41.05
2023-04-18T23:35:46.786Z,41.08
2023-04-18T23:38:13.256Z,41.17
2023-04-18T23:40:39.814Z,41.36
2023-04-18T23:43:06.389Z,41.26
2023-04-18T23:45:32.900Z,40.93
2023-04-18T23:47:59.443Z,41.25
2023-04-18T23:50:25.914Z,41.03
2023-04-18T23:52:52.452Z,40.67
2023-04-18T23:55:19.045Z,40.93
2023-04-18T23:57:45.607Z,40.82
